createdAt,value
2018-03-15T00:00:49.073Z,69.01
2018-03-15T00:03:22.139Z,68.66
2018-03-15T00:05:49.785Z,68.71
2018-03-15T00:08:17.417Z,68.00
2018-03-15T00:10:45.069Z,67.73
2018-03-15T00:13:12.679Z,68.89
2018-03-15T00:15:40.342Z,70.21
2018-03-15T00:18:07.969Z,69.57
2018-03-15T00:20:35.630Z,69.55
2018-03-15T00:23:03.236Z,69.48
2018-03-15T00:25:30.929Z,68.24
2018-03-15T00:27:58.545Z,67.25
2018-03-15T00:30:26.223Z,66.95
2018-03-15T00:32:53.902Z,66.49
2018-03-15T00:35:21.550Z,66.85
2018-03-15T00:37:49.165Z,66.94
2018-03-15T00:40:16.804Z,67.33
2018-03-15T00:42:44.476Z,66.55
2018-03-15T00:45:12.125Z,66.18
2018-03-15T00:47:39.796Z,66.60
2018-03-15T00:50:07.461Z,66.91
2018-03-15T00:52:35.085Z,66.70
2018-03-15T00:55:02.749Z,66.63
2018-03-15T00:57:30.354Z,67.27
2018-03-15T00:59:58.006Z,66.91
2018-03-15T01:02:25.624Z,66.83
2018-03-15T01:04:53.269Z,66.39
2018-03-15T01:07:20.874Z,66.21
2018-03-15T01:09:48.531Z,66.82
2018-03-15T01:12:16.156Z,66.41
2018-03-15T01:14:43.811Z,66.26
2018-03-15T01:17:11.583Z,67.24
2018-03-15T01:19:39.233Z,66.72
2018-03-15T01:22:06.835Z,66.78
2018-03-15T01:24:34.485Z,66.46
2018-03-15T01:27:02.096Z,66.37
2018-03-15T01:29:29.755Z,66.61
2018-03-15T01:31:57.352Z,66.97
2018-03-15T01:34:25.016Z,66.95
2018-03-15T01:36:52.628Z,66.38
2018-03-15T01:39:20.306Z,67.89
2018-03-15T01:41:47.906Z,67.25
2018-03-15T01:44:15.552Z,66.95
2018-03-15T01:46:43.185Z,66.42
2018-03-15T01:49:10.892Z,66.55
2018-03-15T01:51:38.500Z,67.23
2018-03-15T01:54:06.104Z,67.86
2018-03-15T01:56:33.747Z,68.58
2018-03-15T01:59:01.352Z,69.42
2018-03-15T02:01:28.993Z,69.52
2018-03-15T02:03:56.603Z,70.40
2018-03-15T02:06:24.291Z,69.87
2018-03-15T02:08:51.922Z,69.27
2018-03-15T02:11:19.564Z,69.28
2018-03-15T02:13:47.178Z,70.34
2018-03-15T02:16:14.830Z,69.95
2018-03-15T02:18:42.432Z,68.44
2018-03-15T02:21:10.091Z,69.13
2018-03-15T02:23:37.704Z,69.49
2018-03-15T02:26:05.388Z,70.04
2018-03-15T02:28:33.000Z,70.75
2018-03-15T02:31:00.675Z,71.09
2018-03-15T02:33:28.278Z,70.71
2018-03-15T02:35:55.941Z,70.58
2018-03-15T02:38:23.576Z,70.46
2018-03-15T02:40:51.222Z,70.50
2018-03-15T02:43:18.829Z,70.63
2018-03-15T02:45:46.487Z,70.87
2018-03-15T02:48:14.100Z,70.66
2018-03-15T02:50:41.748Z,70.94
2018-03-15T02:53:09.389Z,71.04
2018-03-15T02:55:37.049Z,71.04
2018-03-15T02:58:04.668Z,71.18
2018-03-15T03:00:32.343Z,69.83
2018-03-15T03:02:59.960Z,69.46
2018-03-15T03:05:27.613Z,68.36
2018-03-15T03:07:55.746Z,68.47
2018-03-15T03:10:23.408Z,68.20
2018-03-15T03:12:51.020Z,67.49
2018-03-15T03:15:18.676Z,67.13
2018-03-15T03:17:46.276Z,67.92
2018-03-15T03:20:14.144Z,67.90
2018-03-15T03:22:41.773Z,68.21
2018-03-15T03:25:09.435Z,68.76
2018-03-15T03:27:37.037Z,68.61
2018-03-15T03:30:04.710Z,68.08
2018-03-15T03:32:32.311Z,67.49
2018-03-15T03:35:00.107Z,67.13
2018-03-15T03:37:27.733Z,66.87
2018-03-15T03:39:55.394Z,67.24
2018-03-15T03:42:23.027Z,66.53
2018-03-15T03:44:50.684Z,67.50
2018-03-15T03:47:18.316Z,68.04
2018-03-15T03:49:45.977Z,68.46
2018-03-15T03:52:13.588Z,68.18
2018-03-15T03:54:41.238Z,68.45
2018-03-15T03:57:08.857Z,68.17
2018-03-15T03:59:36.468Z,68.71
2018-03-15T04:02:04.120Z,68.93
2018-03-15T04:04:31.727Z,69.36
2018-03-15T04:06:59.376Z,69.78
2018-03-15T04:09:26.991Z,69.80
2018-03-15T04:11:54.641Z,69.88
2018-03-15T04:14:22.264Z,70.12
2018-03-15T04:16:49.928Z,70.03
2018-03-15T04:19:17.532Z,70.39
2018-03-15T04:21:45.252Z,70.12
2018-03-15T04:24:12.861Z,70.05
2018-03-15T04:26:40.500Z,70.21
2018-03-15T04:29:08.115Z,70.47
2018-03-15T04:31:35.764Z,70.67
2018-03-15T04:34:03.389Z,70.63
2018-03-15T04:36:31.040Z,70.82
2018-03-15T04:38:58.665Z,71.16
2018-03-15T04:41:26.305Z,71.62
2018-03-15T04:43:53.929Z,72.19
2018-03-15T04:46:21.575Z,72.22
2018-03-15T04:48:49.187Z,72.00
2018-03-15T04:51:16.837Z,72.25
2018-03-15T04:53:44.440Z,72.04
2018-03-15T04:56:12.092Z,72.12
2018-03-15T04:58:39.717Z,71.92
2018-03-15T05:01:07.384Z,71.45
2018-03-15T05:03:35.007Z,71.79
2018-03-15T05:06:02.651Z,71.75
2018-03-15T05:08:30.268Z,71.67
2018-03-15T05:10:57.924Z,71.51
2018-03-15T05:13:25.552Z,71.35
2018-03-15T05:15:53.195Z,71.36
2018-03-15T05:18:20.797Z,71.65
2018-03-15T05:20:48.457Z,71.78
2018-03-15T05:23:16.182Z,71.83
2018-03-15T05:25:43.820Z,71.56
2018-03-15T05:28:11.427Z,71.27
2018-03-15T05:30:39.084Z,70.79
2018-03-15T05:33:06.704Z,70.67
2018-03-15T05:35:34.375Z,70.73
2018-03-15T05:38:01.987Z,71.07
2018-03-15T05:40:29.633Z,70.48
2018-03-15T05:42:57.246Z,70.14
2018-03-15T05:45:24.888Z,70.21
2018-03-15T05:47:52.508Z,69.68
2018-03-15T05:50:20.157Z,70.38
2018-03-15T05:52:47.786Z,70.22
2018-03-15T05:55:15.435Z,70.11
2018-03-15T05:57:43.075Z,69.75
2018-03-15T06:00:10.788Z,68.47
2018-03-15T06:02:38.411Z,68.62
2018-03-15T06:05:06.017Z,68.31
2018-03-15T06:07:33.708Z,68.58
2018-03-15T06:10:01.331Z,67.40
2018-03-15T06:12:28.989Z,67.08
2018-03-15T06:14:56.598Z,67.84
2018-03-15T06:17:24.253Z,67.50
2018-03-15T06:19:51.857Z,67.54
2018-03-15T06:22:19.525Z,67.30
2018-03-15T06:24:47.138Z,66.31
2018-03-15T06:27:14.784Z,65.52
2018-03-15T06:29:42.398Z,65.46
2018-03-15T06:32:10.078Z,65.98
2018-03-15T06:34:37.720Z,66.10
2018-03-15T06:37:05.381Z,66.02
2018-03-15T06:39:33.014Z,66.21
2018-03-15T06:42:00.698Z,65.93
2018-03-15T06:44:28.295Z,64.83
2018-03-15T06:46:55.948Z,64.39
2018-03-15T06:49:23.708Z,62.57
2018-03-15T06:51:51.358Z,62.60
2018-03-15T06:54:18.973Z,62.04
2018-03-15T06:56:46.620Z,62.28
2018-03-15T06:59:14.237Z,62.01
2018-03-15T07:01:41.919Z,60.85
2018-03-15T07:04:09.531Z,60.98
2018-03-15T07:06:37.176Z,61.10
2018-03-15T07:09:04.917Z,61.07
2018-03-15T07:11:32.566Z,60.44
2018-03-15T07:14:00.183Z,60.27
2018-03-15T07:16:27.847Z,59.77
2018-03-15T07:18:55.457Z,60.20
2018-03-15T07:21:23.111Z,61.24
2018-03-15T07:23:50.724Z,58.77
2018-03-15T07:26:18.386Z,59.13
2018-03-15T07:28:46.001Z,58.55
2018-03-15T07:31:13.652Z,59.33
2018-03-15T07:33:41.567Z,59.93
2018-03-15T07:36:09.271Z,61.08
2018-03-15T07:38:36.888Z,60.55
2018-03-15T07:41:04.532Z,60.63
2018-03-15T07:43:32.193Z,60.21
2018-03-15T07:45:59.848Z,60.12
2018-03-15T07:48:27.455Z,59.40
2018-03-15T07:50:55.109Z,60.46
2018-03-15T07:53:22.717Z,59.45
2018-03-15T07:55:50.401Z,58.80
2018-03-15T07:58:18.013Z,59.08
2018-03-15T08:00:45.666Z,58.56
2018-03-15T08:03:13.282Z,58.45
2018-03-15T08:05:40.934Z,57.05
2018-03-15T08:08:08.551Z,56.50
2018-03-15T08:10:36.164Z,58.18
2018-03-15T08:13:03.805Z,58.48
2018-03-15T08:15:31.416Z,59.17
2018-03-15T08:17:59.074Z,57.63
2018-03-15T08:20:26.677Z,57.37
2018-03-15T08:22:54.335Z,57.79
2018-03-15T08:25:21.947Z,58.71
2018-03-15T08:27:49.596Z,58.71
2018-03-15T08:30:17.232Z,58.38
2018-03-15T08:32:44.890Z,56.11
2018-03-15T08:35:12.553Z,57.40
2018-03-15T08:37:40.226Z,56.70
2018-03-15T08:40:07.832Z,55.63
2018-03-15T08:42:35.493Z,55.02
2018-03-15T08:45:03.119Z,55.56
2018-03-15T08:47:30.788Z,56.03
2018-03-15T08:49:58.409Z,56.51
2018-03-15T08:52:26.069Z,54.82
2018-03-15T08:54:53.676Z,55.25
2018-03-15T08:57:21.389Z,56.42
2018-03-15T08:59:49.073Z,56.08
2018-03-15T09:02:16.736Z,57.62
2018-03-15T09:04:44.495Z,57.40
2018-03-15T09:07:12.136Z,56.87
2018-03-15T09:09:39.755Z,57.41
2018-03-15T09:12:07.413Z,56.87
2018-03-15T09:14:35.072Z,56.26
2018-03-15T09:17:02.783Z,55.56
2018-03-15T09:19:30.370Z,56.63
2018-03-15T09:21:58.033Z,56.94
2018-03-15T09:24:25.649Z,57.70
2018-03-15T09:26:53.308Z,57.35
2018-03-15T09:29:20.949Z,56.48
2018-03-15T09:31:48.601Z,56.25
2018-03-15T09:34:16.304Z,55.82
2018-03-15T09:36:43.962Z,54.42
2018-03-15T09:39:11.593Z,54.89
2018-03-15T09:41:39.284Z,52.93
2018-03-15T09:44:06.913Z,51.37
2018-03-15T09:46:34.607Z,51.47
2018-03-15T09:49:02.232Z,50.66
2018-03-15T09:51:29.900Z,49.92
2018-03-15T09:53:57.524Z,49.38
2018-03-15T09:56:25.478Z,50.21
2018-03-15T09:58:53.093Z,49.80
2018-03-15T10:01:20.922Z,50.11
2018-03-15T10:03:48.548Z,50.88
2018-03-15T10:06:16.242Z,52.43
2018-03-15T10:08:43.882Z,52.22
2018-03-15T10:11:11.621Z,50.24
2018-03-15T10:13:39.305Z,50.39
2018-03-15T10:16:06.985Z,49.08
2018-03-15T10:18:34.682Z,48.75
2018-03-15T10:21:02.313Z,50.31
2018-03-15T10:23:29.984Z,48.35
2018-03-15T10:25:57.637Z,48.95
2018-03-15T10:28:25.377Z,51.47
2018-03-15T10:30:53.012Z,52.60
2018-03-15T10:33:26.261Z,51.98
2018-03-15T10:35:54.000Z,51.05
2018-03-15T10:38:21.692Z,52.44
2018-03-15T10:40:49.319Z,52.63
2018-03-15T10:43:16.992Z,50.32
2018-03-15T10:45:44.632Z,50.40
2018-03-15T10:48:12.304Z,51.45
2018-03-15T10:50:39.947Z,51.26
2018-03-15T10:53:07.632Z,52.16
2018-03-15T10:55:35.274Z,50.68
2018-03-15T10:58:02.949Z,52.79
2018-03-15T11:00:36.085Z,52.13
2018-03-15T11:03:09.389Z,50.00
2018-03-15T11:05:42.534Z,51.75
2018-03-15T11:08:25.760Z,51.01
2018-03-15T11:10:53.408Z,50.23
2018-03-15T11:13:21.100Z,50.16
2018-03-15T11:15:48.744Z,51.24
2018-03-15T11:18:16.419Z,49.89
2018-03-15T11:20:44.080Z,49.26
2018-03-15T11:23:11.772Z,49.17
2018-03-15T11:25:39.419Z,49.93
2018-03-15T11:28:07.103Z,48.20
2018-03-15T11:30:34.732Z,49.06
2018-03-15T11:33:02.424Z,48.77
2018-03-15T11:35:30.057Z,49.85
2018-03-15T11:37:57.780Z,48.43
2018-03-15T11:40:25.401Z,48.68
2018-03-15T11:42:53.133Z,48.88
2018-03-15T11:45:20.773Z,48.80
2018-03-15T11:47:48.453Z,48.82
2018-03-15T11:50:16.092Z,49.66
2018-03-15T11:52:43.761Z,49.26
2018-03-15T11:55:11.415Z,49.05
2018-03-15T11:57:39.092Z,49.24
2018-03-15T12:00:06.747Z,49.58
2018-03-15T12:02:34.431Z,48.68
2018-03-15T12:05:02.073Z,50.08
2018-03-15T12:07:29.749Z,48.29
2018-03-15T12:09:57.402Z,47.65
2018-03-15T12:12:25.069Z,48.12
2018-03-15T12:14:52.691Z,46.81
2018-03-15T12:17:20.372Z,46.83
2018-03-15T12:19:48.016Z,47.58
2018-03-15T12:22:15.669Z,47.61
2018-03-15T12:24:43.278Z,46.59
2018-03-15T12:27:10.989Z,48.29
2018-03-15T12:29:38.605Z,46.40
2018-03-15T12:32:06.260Z,47.08
2018-03-15T12:34:33.871Z,47.46
2018-03-15T12:37:01.524Z,47.46
2018-03-15T12:39:29.140Z,46.21
2018-03-15T12:41:56.779Z,46.42
2018-03-15T12:44:24.390Z,45.96
2018-03-15T12:46:52.097Z,46.89
2018-03-15T12:49:19.713Z,45.45
2018-03-15T12:51:47.337Z,44.98
2018-03-15T12:54:15.025Z,45.25
2018-03-15T12:56:42.640Z,45.82
2018-03-15T12:59:10.293Z,45.75
2018-03-15T13:01:37.936Z,46.37
2018-03-15T13:04:05.580Z,45.81
2018-03-15T13:06:33.185Z,45.75
2018-03-15T13:09:00.861Z,44.51
2018-03-15T13:11:28.484Z,45.59
2018-03-15T13:13:56.157Z,45.41
2018-03-15T13:16:23.776Z,44.78
2018-03-15T13:18:51.425Z,46.26
2018-03-15T13:21:19.048Z,45.27
2018-03-15T13:23:46.693Z,45.05
2018-03-15T13:26:14.301Z,46.39
2018-03-15T13:28:41.955Z,44.83
2018-03-15T13:31:09.568Z,45.64
2018-03-15T13:33:37.229Z,44.08
2018-03-15T13:36:04.922Z,44.24
2018-03-15T13:38:32.572Z,45.25
2018-03-15T13:41:00.183Z,44.61
2018-03-15T13:43:27.838Z,44.91
2018-03-15T13:45:55.448Z,46.00
2018-03-15T13:48:23.088Z,45.11
2018-03-15T13:50:50.688Z,46.17
2018-03-15T13:53:18.341Z,46.00
2018-03-15T13:55:45.944Z,45.53
2018-03-15T13:58:13.591Z,45.90
2018-03-15T14:00:41.205Z,46.03
2018-03-15T14:03:08.865Z,45.94
2018-03-15T14:05:36.478Z,46.61
2018-03-15T14:08:04.145Z,46.73
2018-03-15T14:10:31.778Z,45.85
2018-03-15T14:12:59.429Z,46.13
2018-03-15T14:15:27.068Z,46.85
2018-03-15T14:17:54.712Z,47.29
2018-03-15T14:20:22.371Z,45.87
2018-03-15T14:22:50.012Z,45.84
2018-03-15T14:25:17.634Z,47.29
2018-03-15T14:27:45.282Z,47.31
2018-03-15T14:30:12.889Z,46.55
2018-03-15T14:32:40.542Z,46.88
2018-03-15T14:35:08.157Z,46.97
2018-03-15T14:37:35.818Z,46.28
2018-03-15T14:40:03.439Z,47.20
2018-03-15T14:42:31.101Z,47.28
2018-03-15T14:44:58.701Z,48.07
2018-03-15T14:47:26.340Z,47.18
2018-03-15T14:49:53.955Z,46.71
2018-03-15T14:52:21.571Z,46.88
2018-03-15T14:54:49.224Z,46.89
2018-03-15T14:57:16.837Z,46.75
2018-03-15T14:59:44.504Z,48.00
2018-03-15T15:02:12.112Z,47.20
2018-03-15T15:04:39.765Z,46.85
2018-03-15T15:07:07.375Z,48.03
2018-03-15T15:09:35.037Z,47.56
2018-03-15T15:12:02.648Z,47.07
2018-03-15T15:14:30.333Z,47.56
2018-03-15T15:16:57.958Z,46.83
2018-03-15T15:19:25.619Z,47.11
2018-03-15T15:21:53.284Z,47.33
2018-03-15T15:24:20.937Z,47.61
2018-03-15T15:26:48.545Z,48.41
2018-03-15T15:29:16.196Z,46.67
2018-03-15T15:31:43.840Z,47.76
2018-03-15T15:34:11.498Z,47.85
2018-03-15T15:36:39.106Z,47.78
2018-03-15T15:39:06.761Z,47.32
2018-03-15T15:41:34.387Z,47.01
2018-03-15T15:44:02.122Z,48.10
2018-03-15T15:46:29.745Z,47.47
2018-03-15T15:48:57.418Z,47.36
2018-03-15T15:51:25.028Z,47.97
2018-03-15T15:53:52.725Z,48.38
2018-03-15T15:56:20.345Z,48.09
2018-03-15T15:58:48.032Z,48.68
2018-03-15T16:01:15.762Z,48.43
2018-03-15T16:03:43.438Z,47.98
2018-03-15T16:06:11.098Z,49.01
2018-03-15T16:08:38.773Z,48.16
2018-03-15T16:11:06.383Z,48.58
2018-03-15T16:13:34.072Z,48.91
2018-03-15T16:16:01.722Z,49.06
2018-03-15T16:18:29.400Z,48.91
2018-03-15T16:20:57.012Z,49.67
2018-03-15T16:23:24.656Z,49.99
2018-03-15T16:25:52.261Z,50.03
2018-03-15T16:28:19.904Z,49.76
2018-03-15T16:30:48.048Z,50.59
2018-03-15T16:33:19.105Z,51.38
2018-03-15T16:35:46.720Z,51.47
2018-03-15T16:38:14.367Z,51.21
2018-03-15T16:40:41.997Z,52.03
2018-03-15T16:43:09.720Z,52.10
2018-03-15T16:45:37.311Z,51.53
2018-03-15T16:48:04.992Z,52.18
2018-03-15T16:50:32.598Z,52.41
2018-03-15T16:53:00.260Z,53.58
2018-03-15T16:55:27.917Z,56.62
2018-03-15T16:57:55.582Z,55.66
2018-03-15T17:00:23.186Z,55.87
2018-03-15T17:02:50.797Z,55.14
2018-03-15T17:05:18.452Z,55.15
2018-03-15T17:07:46.297Z,54.70
2018-03-15T17:10:13.976Z,54.11
2018-03-15T17:12:41.598Z,53.69
2018-03-15T17:15:09.357Z,53.30
2018-03-15T17:17:36.970Z,53.40
2018-03-15T17:20:04.628Z,52.71
2018-03-15T17:22:32.239Z,53.53
2018-03-15T17:25:00.226Z,53.23
2018-03-15T17:27:27.841Z,53.06
2018-03-15T17:29:55.487Z,52.92
2018-03-15T17:32:23.115Z,53.54
2018-03-15T17:34:50.775Z,53.62
2018-03-15T17:37:18.408Z,54.18
2018-03-15T17:39:46.062Z,54.17
2018-03-15T17:42:13.679Z,54.61
2018-03-15T17:44:41.330Z,53.07
2018-03-15T17:47:08.960Z,52.51
2018-03-15T17:49:36.634Z,53.53
2018-03-15T17:52:04.525Z,52.84
2018-03-15T17:54:32.196Z,52.58
2018-03-15T17:56:59.827Z,52.69
2018-03-15T17:59:27.488Z,52.39
2018-03-15T18:01:55.116Z,51.30
2018-03-15T18:04:22.788Z,52.01
2018-03-15T18:06:51.015Z,51.97
2018-03-15T18:09:18.667Z,52.04
2018-03-15T18:11:46.320Z,51.94
2018-03-15T18:14:14.076Z,52.68
2018-03-15T18:16:41.694Z,55.38
2018-03-15T18:19:09.344Z,57.91
2018-03-15T18:21:36.966Z,56.51
2018-03-15T18:24:04.657Z,58.00
2018-03-15T18:26:32.272Z,57.98
2018-03-15T18:28:59.917Z,57.23
2018-03-15T18:31:27.533Z,58.92
2018-03-15T18:33:55.250Z,57.29
2018-03-15T18:36:22.849Z,56.33
2018-03-15T18:38:50.513Z,56.51
2018-03-15T18:41:18.117Z,56.01
2018-03-15T18:43:45.764Z,56.51
2018-03-15T18:46:13.399Z,56.32
2018-03-15T18:48:41.040Z,57.46
2018-03-15T18:51:08.823Z,58.99
2018-03-15T18:53:36.531Z,57.94
2018-03-15T18:56:04.148Z,59.23
2018-03-15T18:58:31.793Z,59.13
2018-03-15T19:00:59.427Z,57.95
2018-03-15T19:03:27.108Z,56.96
2018-03-15T19:05:54.723Z,56.30
2018-03-15T19:08:22.332Z,56.22
2018-03-15T19:10:49.986Z,55.72
2018-03-15T19:13:17.587Z,56.18
2018-03-15T19:15:45.239Z,56.31
2018-03-15T19:18:12.845Z,57.21
2018-03-15T19:20:40.504Z,57.59
2018-03-15T19:23:08.166Z,57.71
2018-03-15T19:25:35.831Z,57.16
2018-03-15T19:28:03.470Z,56.93
2018-03-15T19:30:31.167Z,57.45
2018-03-15T19:32:58.775Z,58.14
2018-03-15T19:35:26.488Z,58.37
2018-03-15T19:37:54.106Z,57.90
2018-03-15T19:40:21.772Z,58.10
2018-03-15T19:42:49.406Z,57.98
2018-03-15T19:45:17.059Z,58.01
2018-03-15T19:47:44.668Z,58.06
2018-03-15T19:50:12.316Z,58.15
2018-03-15T19:52:39.964Z,58.78
2018-03-15T19:55:07.629Z,57.13
2018-03-15T19:57:35.257Z,58.90
2018-03-15T20:00:02.928Z,58.89
2018-03-15T20:02:30.585Z,60.94
2018-03-15T20:04:58.219Z,61.85
2018-03-15T20:09:59.825Z,60.34
2018-03-15T20:12:27.444Z,62.94
2018-03-15T20:14:55.096Z,62.35
2018-03-15T20:17:22.739Z,61.50
2018-03-15T20:19:50.408Z,60.55
2018-03-15T20:25:20.505Z,60.98
2018-03-15T20:27:53.614Z,61.19
2018-03-15T20:30:21.309Z,61.18
2018-03-15T20:32:54.651Z,61.32
2018-03-15T20:35:22.305Z,60.65
2018-03-15T20:37:49.929Z,61.04
2018-03-15T20:40:23.038Z,60.40
2018-03-15T20:42:50.700Z,61.65
2018-03-15T20:45:23.903Z,61.29
2018-03-15T20:50:56.878Z,61.20
2018-03-15T20:53:24.496Z,61.63
2018-03-15T20:55:52.165Z,61.44
2018-03-15T20:58:19.789Z,62.02
2018-03-15T21:00:47.460Z,60.62
2018-03-15T21:03:15.088Z,60.85
2018-03-15T21:05:42.736Z,60.54
2018-03-15T21:08:10.348Z,61.06
2018-03-15T21:10:38.034Z,62.01
2018-03-15T21:13:05.654Z,61.32
2018-03-15T21:15:33.318Z,60.25
2018-03-15T21:18:01.168Z,61.41
2018-03-15T21:20:28.852Z,60.35
2018-03-15T21:22:56.712Z,59.96
2018-03-15T21:25:24.368Z,59.81
2018-03-15T21:27:52.075Z,59.60
2018-03-15T21:30:19.741Z,59.85
2018-03-15T21:32:47.353Z,61.29
2018-03-15T21:35:15.060Z,61.63
2018-03-15T21:37:42.700Z,62.00
2018-03-15T21:40:10.349Z,63.39
2018-03-15T21:42:37.992Z,63.62
2018-03-15T21:45:05.644Z,62.92
2018-03-15T21:47:33.278Z,63.50
2018-03-15T21:50:01.032Z,64.56
2018-03-15T21:52:28.675Z,65.12
2018-03-15T21:54:56.349Z,65.32
2018-03-15T21:57:23.969Z,63.79
2018-03-15T21:59:51.630Z,63.81
2018-03-15T22:02:19.332Z,62.50
2018-03-15T22:04:47.191Z,63.80
2018-03-15T22:07:15.030Z,63.56
2018-03-15T22:09:42.722Z,62.60
2018-03-15T22:12:10.438Z,62.85
2018-03-15T22:14:38.141Z,63.75
2018-03-15T22:17:05.971Z,64.62
2018-03-15T22:19:33.773Z,65.03
2018-03-15T22:22:01.638Z,63.84
2018-03-15T22:24:29.317Z,65.47
2018-03-15T22:26:57.047Z,68.83
2018-03-15T22:29:24.660Z,70.60
2018-03-15T22:31:52.319Z,70.39
2018-03-15T22:34:19.928Z,71.26
2018-03-15T22:36:47.623Z,73.42
2018-03-15T22:39:15.248Z,71.90
2018-03-15T22:41:42.899Z,72.87
2018-03-15T22:44:10.505Z,72.17
2018-03-15T22:46:38.168Z,71.98
2018-03-15T22:49:05.787Z,73.88
2018-03-15T22:51:33.438Z,75.78
2018-03-15T22:54:01.045Z,76.06
2018-03-15T22:56:28.729Z,75.67
2018-03-15T22:58:56.362Z,76.08
2018-03-15T23:01:24.037Z,76.80
2018-03-15T23:03:51.637Z,75.01
2018-03-15T23:06:19.280Z,74.42
2018-03-15T23:08:46.902Z,74.37
2018-03-15T23:11:14.552Z,73.02
2018-03-15T23:13:42.240Z,72.75
2018-03-15T23:16:09.876Z,73.46
2018-03-15T23:18:37.526Z,74.02
2018-03-15T23:21:05.175Z,73.71
2018-03-15T23:23:32.802Z,72.51
2018-03-15T23:26:00.455Z,73.57
2018-03-15T23:28:28.079Z,72.41
2018-03-15T23:30:55.747Z,70.92
2018-03-15T23:33:23.356Z,71.27
2018-03-15T23:35:51.019Z,70.50
2018-03-15T23:38:18.633Z,71.00
2018-03-15T23:40:46.292Z,70.97
2018-03-15T23:43:13.925Z,71.75
2018-03-15T23:45:41.586Z,72.23
2018-03-15T23:48:09.226Z,72.67
2018-03-15T23:50:36.886Z,72.25
2018-03-15T23:53:04.513Z,71.47
2018-03-15T23:55:32.168Z,71.25
2018-03-15T23:57:59.776Z,71.32
